sensor_id;sensor_type;location;lat;lon;timestamp;temperature;humidity
34985;DHT22;21190;58.750;17.004;2022-09-09T00:09:26;13.60;99.90
34985;DHT22;21190;58.750;17.004;2022-09-09T00:11:54;13.50;99.90
34985;DHT22;21190;58.750;17.004;2022-09-09T00:14:40;13.50;99.90
34985;DHT22;21190;58.750;17.004;2022-09-09T00:17:12;13.60;99.90
34985;DHT22;21190;58.750;17.004;2022-09-09T00:19:44;13.60;99.90
34985;DHT22;21190;58.750;17.004;2022-09-09T00:22:17;13.60;99.90
34985;DHT22;21190;58.750;17.004;2022-09-09T00:24:49;13.70;99.90
34985;DHT22;21190;58.750;17.004;2022-09-09T00:27:34;13.60;99.90
34985;DHT22;21190;58.750;17.004;2022-09-09T00:30:21;13.70;99.90
34985;DHT22;21190;58.750;17.004;2022-09-09T00:32:50;13.60;99.90
34985;DHT22;21190;58.750;17.004;2022-09-09T00:35:22;13.60;99.90
34985;DHT22;21190;58.750;17.004;2022-09-09T00:37:50;13.60;99.90
34985;DHT22;21190;58.750;17.004;2022-09-09T00:40:27;13.60;99.90
34985;DHT22;21190;58.750;17.004;2022-09-09T00:43:06;13.60;99.90
34985;DHT22;21190;58.750;17.004;2022-09-09T00:48:21;13.50;99.90
34985;DHT22;21190;58.750;17.004;2022-09-09T00:53:35;13.60;99.90
34985;DHT22;21190;58.750;17.004;2022-09-09T00:56:14;13.50;99.90
34985;DHT22;21190;58.750;17.004;2022-09-09T00:58:55;13.50;99.90
34985;DHT22;21190;58.750;17.004;2022-09-09T01:01:25;13.50;99.90
34985;DHT22;21190;58.750;17.004;2022-09-09T01:03:52;13.50;99.90
34985;DHT22;21190;58.750;17.004;2022-09-09T01:06:22;13.50;99.90
34985;DHT22;21190;58.750;17.004;2022-09-09T01:16:58;13.50;99.90
34985;DHT22;21190;58.750;17.004;2022-09-09T01:22:38;13.50;99.90
34985;DHT22;21190;58.750;17.004;2022-09-09T01:27:33;13.50;99.90
34985;DHT22;21190;58.750;17.004;2022-09-09T01:30:02;13.50;99.90
34985;DHT22;21190;58.750;17.004;2022-09-09T01:32:42;13.50;99.90
34985;DHT22;21190;58.750;17.004;2022-09-09T01:35:23;13.50;99.90
34985;DHT22;21190;58.750;17.004;2022-09-09T01:37:54;13.50;99.90
34985;DHT22;21190;58.750;17.004;2022-09-09T01:40:20;13.50;99.90
34985;DHT22;21190;58.750;17.004;2022-09-09T01:42:47;13.60;99.90
34985;DHT22;21190;58.750;17.004;2022-09-09T01:45:15;13.70;99.90
34985;DHT22;21190;58.750;17.004;2022-09-09T01:47:42;13.70;99.90
34985;DHT22;21190;58.750;17.004;2022-09-09T01:50:10;13.70;99.90
34985;DHT22;21190;58.750;17.004;2022-09-09T01:52:38;13.70;99.90
34985;DHT22;21190;58.750;17.004;2022-09-09T01:55:05;13.70;99.90
34985;DHT22;21190;58.750;17.004;2022-09-09T02:00:31;13.70;99.90
34985;DHT22;21190;58.750;17.004;2022-09-09T02:13:14;13.60;99.90
34985;DHT22;21190;58.750;17.004;2022-09-09T02:15:45;13.60;99.90
34985;DHT22;21190;58.750;17.004;2022-09-09T02:18:14;13.60;99.90
34985;DHT22;21190;58.750;17.004;2022-09-09T02:20:41;13.60;99.90
34985;DHT22;21190;58.750;17.004;2022-09-09T02:23:09;13.60;99.90
34985;DHT22;21190;58.750;17.004;2022-09-09T02:25:37;13.60;99.90
34985;DHT22;21190;58.750;17.004;2022-09-09T02:28:06;13.50;99.90
34985;DHT22;21190;58.750;17.004;2022-09-09T02:30:33;13.60;99.90
34985;DHT22;21190;58.750;17.004;2022-09-09T02:33:02;13.60;99.90
34985;DHT22;21190;58.750;17.004;2022-09-09T02:35:30;13.60;99.90
34985;DHT22;21190;58.750;17.004;2022-09-09T02:37:59;13.60;99.90
34985;DHT22;21190;58.750;17.004;2022-09-09T02:40:26;13.60;99.90
34985;DHT22;21190;58.750;17.004;2022-09-09T02:42:54;13.70;99.90
34985;DHT22;21190;58.750;17.004;2022-09-09T02:45:24;13.70;99.90
34985;DHT22;21190;58.750;17.004;2022-09-09T02:47:59;13.80;99.90
34985;DHT22;21190;58.750;17.004;2022-09-09T02:50:33;13.70;99.90
34985;DHT22;21190;58.750;17.004;2022-09-09T02:53:16;13.70;99.90
34985;DHT22;21190;58.750;17.004;2022-09-09T02:58:29;13.70;99.90
34985;DHT22;21190;58.750;17.004;2022-09-09T03:00:56;13.70;99.90
34985;DHT22;21190;58.750;17.004;2022-09-09T03:03:24;13.70;99.90
34985;DHT22;21190;58.750;17.004;2022-09-09T03:05:51;13.60;99.90
34985;DHT22;21190;58.750;17.004;2022-09-09T03:08:18;13.60;99.90
34985;DHT22;21190;58.750;17.004;2022-09-09T03:10:45;13.50;99.90
34985;DHT22;21190;58.750;17.004;2022-09-09T03:13:12;13.50;99.90
34985;DHT22;21190;58.750;17.004;2022-09-09T03:15:41;13.60;99.90
34985;DHT22;21190;58.750;17.004;2022-09-09T03:18:08;13.50;99.90
34985;DHT22;21190;58.750;17.004;2022-09-09T03:20:36;13.50;99.90
34985;DHT22;21190;58.750;17.004;2022-09-09T03:23:03;13.50;99.90
34985;DHT22;21190;58.750;17.004;2022-09-09T03:25:30;13.50;99.90
34985;DHT22;21190;58.750;17.004;2022-09-09T03:27:56;13.50;99.90
34985;DHT22;21190;58.750;17.004;2022-09-09T03:30:24;13.50;99.90
34985;DHT22;21190;58.750;17.004;2022-09-09T03:32:52;13.40;99.90
34985;DHT22;21190;58.750;17.004;2022-09-09T03:35:19;13.40;99.90
34985;DHT22;21190;58.750;17.004;2022-09-09T03:37:46;13.40;99.90
34985;DHT22;21190;58.750;17.004;2022-09-09T03:40:13;13.40;99.90
34985;DHT22;21190;58.750;17.004;2022-09-09T03:42:40;13.40;99.90
34985;DHT22;21190;58.750;17.004;2022-09-09T03:45:08;13.30;99.90
34985;DHT22;21190;58.750;17.004;2022-09-09T03:47:35;13.40;99.90
34985;DHT22;21190;58.750;17.004;2022-09-09T03:50:03;13.40;99.90
34985;DHT22;21190;58.750;17.004;2022-09-09T03:52:30;13.50;99.90
34985;DHT22;21190;58.750;17.004;2022-09-09T03:54:57;13.60;99.90
34985;DHT22;21190;58.750;17.004;2022-09-09T03:57:24;13.60;99.90
34985;DHT22;21190;58.750;17.004;2022-09-09T03:59:51;13.60;99.90
34985;DHT22;21190;58.750;17.004;2022-09-09T04:02:18;13.70;99.90
34985;DHT22;21190;58.750;17.004;2022-09-09T04:04:45;13.70;99.90
34985;DHT22;21190;58.750;17.004;2022-09-09T04:07:12;13.60;99.90
34985;DHT22;21190;58.750;17.004;2022-09-09T04:09:39;13.60;99.90
34985;DHT22;21190;58.750;17.004;2022-09-09T04:12:06;13.60;99.90
34985;DHT22;21190;58.750;17.004;2022-09-09T04:14:33;13.60;99.90
34985;DHT22;21190;58.750;17.004;2022-09-09T04:17:00;13.60;99.90
34985;DHT22;21190;58.750;17.004;2022-09-09T04:19:27;13.60;99.90
34985;DHT22;21190;58.750;17.004;2022-09-09T04:21:54;13.60;99.90
34985;DHT22;21190;58.750;17.004;2022-09-09T04:24:21;13.60;99.90
34985;DHT22;21190;58.750;17.004;2022-09-09T04:26:48;13.60;99.90
34985;DHT22;21190;58.750;17.004;2022-09-09T04:29:15;13.60;99.90
34985;DHT22;21190;58.750;17.004;2022-09-09T04:31:42;13.60;99.90
34985;DHT22;21190;58.750;17.004;2022-09-09T04:34:09;13.70;99.90
34985;DHT22;21190;58.750;17.004;2022-09-09T04:36:36;13.70;99.90
34985;DHT22;21190;58.750;17.004;2022-09-09T04:39:03;13.70;99.90
34985;DHT22;21190;58.750;17.004;2022-09-09T04:41:30;13.70;99.90
34985;DHT22;21190;58.750;17.004;2022-09-09T04:43:57;13.70;99.90
34985;DHT22;21190;58.750;17.004;2022-09-09T04:46:26;13.70;99.90
34985;DHT22;21190;58.750;17.004;2022-09-09T04:48:53;13.70;99.90
34985;DHT22;21190;58.750;17.004;2022-09-09T04:51:20;13.70;99.90
34985;DHT22;21190;58.750;17.004;2022-09-09T04:53:48;13.70;99.90
34985;DHT22;21190;58.750;17.004;2022-09-09T04:56:15;13.70;99.90
34985;DHT22;21190;58.750;17.004;2022-09-09T04:58:43;13.80;99.90
34985;DHT22;21190;58.750;17.004;2022-09-09T05:01:13;13.80;99.90
34985;DHT22;21190;58.750;17.004;2022-09-09T05:03:40;13.80;99.90
34985;DHT22;21190;58.750;17.004;2022-09-09T05:06:08;13.80;99.90
34985;DHT22;21190;58.750;17.004;2022-09-09T05:08:36;13.80;99.90
34985;DHT22;21190;58.750;17.004;2022-09-09T05:11:12;13.80;99.90
34985;DHT22;21190;58.750;17.004;2022-09-09T05:13:39;13.80;99.90
34985;DHT22;21190;58.750;17.004;2022-09-09T05:16:07;13.80;99.90
34985;DHT22;21190;58.750;17.004;2022-09-09T05:18:34;13.80;99.90
34985;DHT22;21190;58.750;17.004;2022-09-09T05:21:01;13.80;99.90
34985;DHT22;21190;58.750;17.004;2022-09-09T05:23:28;13.80;99.90
34985;DHT22;21190;58.750;17.004;2022-09-09T05:25:56;13.80;99.90
34985;DHT22;21190;58.750;17.004;2022-09-09T05:28:24;13.80;99.90
34985;DHT22;21190;58.750;17.004;2022-09-09T05:30:58;13.80;99.90
34985;DHT22;21190;58.750;17.004;2022-09-09T05:33:27;13.80;99.90
34985;DHT22;21190;58.750;17.004;2022-09-09T05:35:57;13.80;99.90
34985;DHT22;21190;58.750;17.004;2022-09-09T05:38:24;13.80;99.90
34985;DHT22;21190;58.750;17.004;2022-09-09T05:40:54;13.80;99.90
34985;DHT22;21190;58.750;17.004;2022-09-09T05:43:22;13.90;99.90
34985;DHT22;21190;58.750;17.004;2022-09-09T05:46:00;13.90;99.90
34985;DHT22;21190;58.750;17.004;2022-09-09T05:48:31;13.80;99.90
34985;DHT22;21190;58.750;17.004;2022-09-09T05:50:59;13.90;99.90
34985;DHT22;21190;58.750;17.004;2022-09-09T05:53:26;13.90;99.90
34985;DHT22;21190;58.750;17.004;2022-09-09T05:56:02;13.90;99.90
34985;DHT22;21190;58.750;17.004;2022-09-09T05:58:33;13.90;99.90
34985;DHT22;21190;58.750;17.004;2022-09-09T06:01:03;14.00;99.90
34985;DHT22;21190;58.750;17.004;2022-09-09T06:03:31;14.00;99.90
34985;DHT22;21190;58.750;17.004;2022-09-09T06:05:58;14.00;99.90
34985;DHT22;21190;58.750;17.004;2022-09-09T06:08:26;14.00;99.90
34985;DHT22;21190;58.750;17.004;2022-09-09T06:10:53;14.00;99.90
34985;DHT22;21190;58.750;17.004;2022-09-09T06:13:20;14.00;99.90
34985;DHT22;21190;58.750;17.004;2022-09-09T06:15:50;14.10;99.90
34985;DHT22;21190;58.750;17.004;2022-09-09T06:18:18;14.10;99.90
34985;DHT22;21190;58.750;17.004;2022-09-09T06:20:55;14.20;99.90
34985;DHT22;21190;58.750;17.004;2022-09-09T06:23:22;14.20;99.90
34985;DHT22;21190;58.750;17.004;2022-09-09T06:25:49;14.20;99.90
34985;DHT22;21190;58.750;17.004;2022-09-09T06:28:17;14.20;99.90
34985;DHT22;21190;58.750;17.004;2022-09-09T06:30:44;14.20;99.90
34985;DHT22;21190;58.750;17.004;2022-09-09T06:33:11;14.20;99.90
34985;DHT22;21190;58.750;17.004;2022-09-09T06:35:38;14.20;99.90
34985;DHT22;21190;58.750;17.004;2022-09-09T06:38:05;14.20;99.90
34985;DHT22;21190;58.750;17.004;2022-09-09T06:40:32;14.20;99.90
34985;DHT22;21190;58.750;17.004;2022-09-09T06:42:59;14.20;99.90
34985;DHT22;21190;58.750;17.004;2022-09-09T06:45:27;14.20;99.90
34985;DHT22;21190;58.750;17.004;2022-09-09T06:47:55;14.20;99.90
34985;DHT22;21190;58.750;17.004;2022-09-09T06:50:23;14.20;99.90
34985;DHT22;21190;58.750;17.004;2022-09-09T06:52:50;14.20;99.90
34985;DHT22;21190;58.750;17.004;2022-09-09T06:55:18;14.20;99.90
34985;DHT22;21190;58.750;17.004;2022-09-09T06:57:46;14.20;99.90
34985;DHT22;21190;58.750;17.004;2022-09-09T07:00:13;14.20;99.90
34985;DHT22;21190;58.750;17.004;2022-09-09T07:02:40;14.30;99.90
34985;DHT22;21190;58.750;17.004;2022-09-09T07:05:07;14.30;99.90
34985;DHT22;21190;58.750;17.004;2022-09-09T07:07:35;14.40;99.90
34985;DHT22;21190;58.750;17.004;2022-09-09T07:10:02;14.50;99.90
34985;DHT22;21190;58.750;17.004;2022-09-09T07:12:30;14.50;99.90
34985;DHT22;21190;58.750;17.004;2022-09-09T07:14:57;14.40;99.90
34985;DHT22;21190;58.750;17.004;2022-09-09T07:17:24;14.40;99.90
34985;DHT22;21190;58.750;17.004;2022-09-09T07:19:51;14.40;99.90
34985;DHT22;21190;58.750;17.004;2022-09-09T07:22:18;14.40;99.90
34985;DHT22;21190;58.750;17.004;2022-09-09T07:24:46;14.40;99.90
34985;DHT22;21190;58.750;17.004;2022-09-09T07:27:13;14.40;99.90
34985;DHT22;21190;58.750;17.004;2022-09-09T07:29:40;14.40;99.90
34985;DHT22;21190;58.750;17.004;2022-09-09T07:32:07;14.50;99.90
34985;DHT22;21190;58.750;17.004;2022-09-09T07:34:34;14.60;99.90
34985;DHT22;21190;58.750;17.004;2022-09-09T07:37:01;14.60;99.90
34985;DHT22;21190;58.750;17.004;2022-09-09T07:39:28;14.60;99.90
34985;DHT22;21190;58.750;17.004;2022-09-09T07:41:56;14.60;99.90
34985;DHT22;21190;58.750;17.004;2022-09-09T07:44:23;14.50;99.90
34985;DHT22;21190;58.750;17.004;2022-09-09T07:46:53;14.60;99.90
34985;DHT22;21190;58.750;17.004;2022-09-09T07:49:20;14.60;99.90
34985;DHT22;21190;58.750;17.004;2022-09-09T07:51:56;14.70;99.90
34985;DHT22;21190;58.750;17.004;2022-09-09T07:54:23;14.80;99.90
34985;DHT22;21190;58.750;17.004;2022-09-09T07:56:50;14.80;99.90
34985;DHT22;21190;58.750;17.004;2022-09-09T07:59:17;14.70;99.90
34985;DHT22;21190;58.750;17.004;2022-09-09T08:01:46;14.60;99.90
34985;DHT22;21190;58.750;17.004;2022-09-09T08:04:14;14.60;99.90
34985;DHT22;21190;58.750;17.004;2022-09-09T08:06:43;14.70;99.90
34985;DHT22;21190;58.750;17.004;2022-09-09T08:09:10;14.60;99.90
34985;DHT22;21190;58.750;17.004;2022-09-09T08:11:37;14.70;99.90
34985;DHT22;21190;58.750;17.004;2022-09-09T08:14:05;14.70;99.90
34985;DHT22;21190;58.750;17.004;2022-09-09T08:16:35;14.70;99.90
34985;DHT22;21190;58.750;17.004;2022-09-09T08:19:03;14.80;99.90
34985;DHT22;21190;58.750;17.004;2022-09-09T08:21:30;14.80;99.90
34985;DHT22;21190;58.750;17.004;2022-09-09T08:23:59;14.80;99.90
34985;DHT22;21190;58.750;17.004;2022-09-09T08:26:27;14.80;99.90
34985;DHT22;21190;58.750;17.004;2022-09-09T08:28:55;14.80;99.90
34985;DHT22;21190;58.750;17.004;2022-09-09T08:31:24;14.80;99.90
34985;DHT22;21190;58.750;17.004;2022-09-09T08:33:51;14.70;99.90
34985;DHT22;21190;58.750;17.004;2022-09-09T08:36:20;14.70;99.90
34985;DHT22;21190;58.750;17.004;2022-09-09T08:38:47;14.80;99.90
34985;DHT22;21190;58.750;17.004;2022-09-09T08:44:03;14.80;99.90
34985;DHT22;21190;58.750;17.004;2022-09-09T08:51:31;15.10;99.90
34985;DHT22;21190;58.750;17.004;2022-09-09T08:54:00;15.20;99.90
34985;DHT22;21190;58.750;17.004;2022-09-09T08:56:28;15.20;99.90
34985;DHT22;21190;58.750;17.004;2022-09-09T08:58:56;15.10;99.90
34985;DHT22;21190;58.750;17.004;2022-09-09T09:06:48;15.10;99.90
34985;DHT22;21190;58.750;17.004;2022-09-09T09:11:57;15.20;99.90
34985;DHT22;21190;58.750;17.004;2022-09-09T09:14:29;15.10;99.90
34985;DHT22;21190;58.750;17.004;2022-09-09T09:17:01;15.10;99.90
34985;DHT22;21190;58.750;17.004;2022-09-09T09:19:28;15.10;99.90
34985;DHT22;21190;58.750;17.004;2022-09-09T09:24:52;14.90;99.90
34985;DHT22;21190;58.750;17.004;2022-09-09T09:30:00;15.00;99.90
34985;DHT22;21190;58.750;17.004;2022-09-09T09:35:17;15.10;99.90
34985;DHT22;21190;58.750;17.004;2022-09-09T09:37:45;15.10;99.90
34985;DHT22;21190;58.750;17.004;2022-09-09T09:40:32;15.10;99.90
34985;DHT22;21190;58.750;17.004;2022-09-09T09:43:00;15.00;99.90
34985;DHT22;21190;58.750;17.004;2022-09-09T09:45:29;15.00;99.90
34985;DHT22;21190;58.750;17.004;2022-09-09T09:47:59;15.10;99.90
34985;DHT22;21190;58.750;17.004;2022-09-09T09:50:32;15.10;99.90
34985;DHT22;21190;58.750;17.004;2022-09-09T09:53:02;15.10;99.90
34985;DHT22;21190;58.750;17.004;2022-09-09T09:55:31;15.10;99.90
34985;DHT22;21190;58.750;17.004;2022-09-09T09:58:06;15.20;99.90
34985;DHT22;21190;58.750;17.004;2022-09-09T10:00:33;15.30;99.90
34985;DHT22;21190;58.750;17.004;2022-09-09T10:03:12;15.30;99.90
34985;DHT22;21190;58.750;17.004;2022-09-09T10:05:44;15.30;99.90
34985;DHT22;21190;58.750;17.004;2022-09-09T10:08:13;15.50;99.90
34985;DHT22;21190;58.750;17.004;2022-09-09T10:10:52;15.50;99.90
34985;DHT22;21190;58.750;17.004;2022-09-09T10:13:30;15.40;99.90
34985;DHT22;21190;58.750;17.004;2022-09-09T10:16:13;15.40;99.90
34985;DHT22;21190;58.750;17.004;2022-09-09T10:42:53;15.50;99.90
34985;DHT22;21190;58.750;17.004;2022-09-09T10:45:27;15.60;99.90
34985;DHT22;21190;58.750;17.004;2022-09-09T10:50:48;15.60;99.90
34985;DHT22;21190;58.750;17.004;2022-09-09T10:56:21;15.50;99.90
34985;DHT22;21190;58.750;17.004;2022-09-09T11:01:28;15.60;99.90
34985;DHT22;21190;58.750;17.004;2022-09-09T11:04:05;15.60;99.90
34985;DHT22;21190;58.750;17.004;2022-09-09T11:06:40;15.50;99.90
34985;DHT22;21190;58.750;17.004;2022-09-09T11:09:13;15.60;99.90
34985;DHT22;21190;58.750;17.004;2022-09-09T11:11:46;15.60;99.90
34985;DHT22;21190;58.750;17.004;2022-09-09T11:14:18;15.60;99.90
34985;DHT22;21190;58.750;17.004;2022-09-09T11:19:19;15.70;99.90
34985;DHT22;21190;58.750;17.004;2022-09-09T11:21:49;15.70;99.90
34985;DHT22;21190;58.750;17.004;2022-09-09T11:24:23;15.80;99.90
34985;DHT22;21190;58.750;17.004;2022-09-09T11:26:57;15.90;99.90
34985;DHT22;21190;58.750;17.004;2022-09-09T11:32:07;15.90;99.90
34985;DHT22;21190;58.750;17.004;2022-09-09T11:34:42;15.70;99.90
34985;DHT22;21190;58.750;17.004;2022-09-09T11:37:17;15.90;99.90
34985;DHT22;21190;58.750;17.004;2022-09-09T11:40:09;15.90;99.90
34985;DHT22;21190;58.750;17.004;2022-09-09T11:42:40;15.90;99.90
34985;DHT22;21190;58.750;17.004;2022-09-09T11:45:15;16.00;99.90
34985;DHT22;21190;58.750;17.004;2022-09-09T11:47:56;16.10;99.90
34985;DHT22;21190;58.750;17.004;2022-09-09T11:52:50;16.10;99.90
34985;DHT22;21190;58.750;17.004;2022-09-09T11:55:28;16.20;99.90
34985;DHT22;21190;58.750;17.004;2022-09-09T12:00:39;16.20;99.90
34985;DHT22;21190;58.750;17.004;2022-09-09T12:05:56;16.10;99.90
34985;DHT22;21190;58.750;17.004;2022-09-09T12:08:27;16.20;99.90
34985;DHT22;21190;58.750;17.004;2022-09-09T12:10:56;16.30;99.90
34985;DHT22;21190;58.750;17.004;2022-09-09T12:13:25;16.20;99.90
34985;DHT22;21190;58.750;17.004;2022-09-09T12:15:57;16.00;99.90
34985;DHT22;21190;58.750;17.004;2022-09-09T12:18:25;15.90;99.90
34985;DHT22;21190;58.750;17.004;2022-09-09T12:33:51;16.30;99.90
34985;DHT22;21190;58.750;17.004;2022-09-09T12:36:24;16.30;99.90
34985;DHT22;21190;58.750;17.004;2022-09-09T12:38:53;16.10;99.90
34985;DHT22;21190;58.750;17.004;2022-09-09T12:41:24;16.00;99.90
34985;DHT22;21190;58.750;17.004;2022-09-09T12:43:51;16.00;99.90
34985;DHT22;21190;58.750;17.004;2022-09-09T12:46:30;15.90;99.90
34985;DHT22;21190;58.750;17.004;2022-09-09T12:49:00;15.90;99.90
34985;DHT22;21190;58.750;17.004;2022-09-09T12:51:28;15.80;99.90
34985;DHT22;21190;58.750;17.004;2022-09-09T12:53:55;15.80;99.90
34985;DHT22;21190;58.750;17.004;2022-09-09T12:56:30;15.70;99.90
34985;DHT22;21190;58.750;17.004;2022-09-09T12:58:57;15.70;99.90
34985;DHT22;21190;58.750;17.004;2022-09-09T13:01:26;15.70;99.90
34985;DHT22;21190;58.750;17.004;2022-09-09T13:03:53;15.70;99.90
34985;DHT22;21190;58.750;17.004;2022-09-09T13:08:55;15.80;99.90
34985;DHT22;21190;58.750;17.004;2022-09-09T13:11:56;15.90;99.90
34985;DHT22;21190;58.750;17.004;2022-09-09T13:14:19;15.90;99.90
34985;DHT22;21190;58.750;17.004;2022-09-09T13:16:59;16.00;99.90
34985;DHT22;21190;58.750;17.004;2022-09-09T13:19:26;16.10;99.90
34985;DHT22;21190;58.750;17.004;2022-09-09T13:21:55;16.10;99.90
34985;DHT22;21190;58.750;17.004;2022-09-09T13:24:27;16.10;99.90
34985;DHT22;21190;58.750;17.004;2022-09-09T13:26:59;16.10;99.90
34985;DHT22;21190;58.750;17.004;2022-09-09T13:29:30;16.10;99.90
34985;DHT22;21190;58.750;17.004;2022-09-09T13:32:04;16.10;99.90
34985;DHT22;21190;58.750;17.004;2022-09-09T13:34:32;16.20;99.90
34985;DHT22;21190;58.750;17.004;2022-09-09T13:37:00;16.30;99.90
34985;DHT22;21190;58.750;17.004;2022-09-09T13:39:33;16.30;99.90
34985;DHT22;21190;58.750;17.004;2022-09-09T13:42:02;16.20;99.90
34985;DHT22;21190;58.750;17.004;2022-09-09T13:44:30;16.20;99.90
34985;DHT22;21190;58.750;17.004;2022-09-09T13:49:44;16.20;99.90
34985;DHT22;21190;58.750;17.004;2022-09-09T13:52:16;16.20;99.90
34985;DHT22;21190;58.750;17.004;2022-09-09T13:54:49;16.10;99.90
34985;DHT22;21190;58.750;17.004;2022-09-09T13:57:21;16.10;99.90
34985;DHT22;21190;58.750;17.004;2022-09-09T13:59:49;16.10;99.90
34985;DHT22;21190;58.750;17.004;2022-09-09T14:02:32;16.10;99.90
34985;DHT22;21190;58.750;17.004;2022-09-09T14:05:00;16.00;99.90
34985;DHT22;21190;58.750;17.004;2022-09-09T14:07:27;15.90;99.90
34985;DHT22;21190;58.750;17.004;2022-09-09T14:09:53;16.00;99.90
34985;DHT22;21190;58.750;17.004;2022-09-09T14:12:20;16.10;99.90
34985;DHT22;21190;58.750;17.004;2022-09-09T14:14:48;16.10;99.90
34985;DHT22;21190;58.750;17.004;2022-09-09T14:17:15;16.00;99.90
34985;DHT22;21190;58.750;17.004;2022-09-09T14:19:42;15.90;99.90
34985;DHT22;21190;58.750;17.004;2022-09-09T14:22:09;15.80;99.90
34985;DHT22;21190;58.750;17.004;2022-09-09T14:24:36;15.90;99.90
34985;DHT22;21190;58.750;17.004;2022-09-09T14:27:03;15.80;99.90
34985;DHT22;21190;58.750;17.004;2022-09-09T14:29:30;15.90;99.90
34985;DHT22;21190;58.750;17.004;2022-09-09T14:31:57;15.80;99.90
34985;DHT22;21190;58.750;17.004;2022-09-09T14:34:27;15.80;99.90
34985;DHT22;21190;58.750;17.004;2022-09-09T14:36:54;15.80;99.90
34985;DHT22;21190;58.750;17.004;2022-09-09T14:39:21;15.80;99.90
34985;DHT22;21190;58.750;17.004;2022-09-09T14:41:48;15.70;99.90
34985;DHT22;21190;58.750;17.004;2022-09-09T14:44:14;15.80;99.90
34985;DHT22;21190;58.750;17.004;2022-09-09T14:46:42;15.80;99.90
34985;DHT22;21190;58.750;17.004;2022-09-09T14:49:10;15.80;99.90
34985;DHT22;21190;58.750;17.004;2022-09-09T14:51:37;15.70;99.90
34985;DHT22;21190;58.750;17.004;2022-09-09T14:54:04;15.60;99.90
34985;DHT22;21190;58.750;17.004;2022-09-09T14:56:31;15.60;99.90
34985;DHT22;21190;58.750;17.004;2022-09-09T14:59:01;15.60;99.90
34985;DHT22;21190;58.750;17.004;2022-09-09T15:01:29;15.50;99.90
34985;DHT22;21190;58.750;17.004;2022-09-09T15:03:59;15.50;99.90
34985;DHT22;21190;58.750;17.004;2022-09-09T15:06:27;15.50;99.90
34985;DHT22;21190;58.750;17.004;2022-09-09T15:08:56;15.60;99.90
34985;DHT22;21190;58.750;17.004;2022-09-09T15:11:25;15.60;99.90
34985;DHT22;21190;58.750;17.004;2022-09-09T15:13:52;15.60;99.90
34985;DHT22;21190;58.750;17.004;2022-09-09T15:16:21;15.60;99.90
34985;DHT22;21190;58.750;17.004;2022-09-09T15:18:50;15.50;99.90
34985;DHT22;21190;58.750;17.004;2022-09-09T15:21:19;15.50;99.90
34985;DHT22;21190;58.750;17.004;2022-09-09T15:23:46;15.40;99.90
34985;DHT22;21190;58.750;17.004;2022-09-09T15:26:15;15.40;99.90
34985;DHT22;21190;58.750;17.004;2022-09-09T15:28:42;15.30;99.90
34985;DHT22;21190;58.750;17.004;2022-09-09T15:31:14;15.30;99.90
34985;DHT22;21190;58.750;17.004;2022-09-09T15:33:41;15.30;99.90
34985;DHT22;21190;58.750;17.004;2022-09-09T15:38:42;15.20;99.90
34985;DHT22;21190;58.750;17.004;2022-09-09T15:41:11;15.20;99.90
34985;DHT22;21190;58.750;17.004;2022-09-09T15:43:38;15.20;99.90
34985;DHT22;21190;58.750;17.004;2022-09-09T15:46:25;15.10;99.90
34985;DHT22;21190;58.750;17.004;2022-09-09T15:48:54;15.20;99.90
34985;DHT22;21190;58.750;17.004;2022-09-09T15:51:22;15.10;99.90
34985;DHT22;21190;58.750;17.004;2022-09-09T15:54:08;15.10;99.90
34985;DHT22;21190;58.750;17.004;2022-09-09T15:56:35;15.10;99.90
34985;DHT22;21190;58.750;17.004;2022-09-09T15:59:02;15.20;99.90
34985;DHT22;21190;58.750;17.004;2022-09-09T16:01:30;15.10;99.90
34985;DHT22;21190;58.750;17.004;2022-09-09T16:03:57;15.10;99.90
34985;DHT22;21190;58.750;17.004;2022-09-09T16:06:25;15.10;99.90
34985;DHT22;21190;58.750;17.004;2022-09-09T16:08:55;15.10;99.90
34985;DHT22;21190;58.750;17.004;2022-09-09T16:11:24;15.00;99.90
34985;DHT22;21190;58.750;17.004;2022-09-09T16:13:53;15.00;99.90
34985;DHT22;21190;58.750;17.004;2022-09-09T16:16:21;14.90;99.90
34985;DHT22;21190;58.750;17.004;2022-09-09T16:18:50;14.90;99.90
34985;DHT22;21190;58.750;17.004;2022-09-09T16:21:20;14.80;99.90
34985;DHT22;21190;58.750;17.004;2022-09-09T16:23:48;14.80;99.90
34985;DHT22;21190;58.750;17.004;2022-09-09T16:26:17;14.80;99.90
34985;DHT22;21190;58.750;17.004;2022-09-09T16:28:44;14.70;99.90
34985;DHT22;21190;58.750;17.004;2022-09-09T16:31:13;14.70;99.90
34985;DHT22;21190;58.750;17.004;2022-09-09T16:33:41;14.70;99.90
34985;DHT22;21190;58.750;17.004;2022-09-09T16:36:09;14.70;99.90
34985;DHT22;21190;58.750;17.004;2022-09-09T16:38:36;14.70;99.90
34985;DHT22;21190;58.750;17.004;2022-09-09T16:41:04;14.60;99.90
34985;DHT22;21190;58.750;17.004;2022-09-09T16:43:32;14.60;99.90
34985;DHT22;21190;58.750;17.004;2022-09-09T16:45:59;14.60;99.90
34985;DHT22;21190;58.750;17.004;2022-09-09T16:48:34;14.60;99.90
34985;DHT22;21190;58.750;17.004;2022-09-09T16:51:04;14.60;99.90
34985;DHT22;21190;58.750;17.004;2022-09-09T16:53:35;14.60;99.90
34985;DHT22;21190;58.750;17.004;2022-09-09T16:56:08;14.60;99.90
34985;DHT22;21190;58.750;17.004;2022-09-09T16:58:36;14.60;99.90
34985;DHT22;21190;58.750;17.004;2022-09-09T17:01:03;14.50;99.90
34985;DHT22;21190;58.750;17.004;2022-09-09T17:03:31;14.60;99.90
34985;DHT22;21190;58.750;17.004;2022-09-09T17:05:59;14.60;99.90
34985;DHT22;21190;58.750;17.004;2022-09-09T17:08:29;14.60;99.90
34985;DHT22;21190;58.750;17.004;2022-09-09T17:10:56;14.60;99.90
34985;DHT22;21190;58.750;17.004;2022-09-09T17:13:24;14.60;99.90
34985;DHT22;21190;58.750;17.004;2022-09-09T17:15:51;14.60;99.90
34985;DHT22;21190;58.750;17.004;2022-09-09T17:18:18;14.60;99.90
34985;DHT22;21190;58.750;17.004;2022-09-09T17:20:47;14.60;99.90
34985;DHT22;21190;58.750;17.004;2022-09-09T17:23:14;14.60;99.90
34985;DHT22;21190;58.750;17.004;2022-09-09T17:25:42;14.50;99.90
34985;DHT22;21190;58.750;17.004;2022-09-09T17:28:09;14.60;99.90
34985;DHT22;21190;58.750;17.004;2022-09-09T17:30:36;14.50;99.90
34985;DHT22;21190;58.750;17.004;2022-09-09T17:33:04;14.60;99.90
34985;DHT22;21190;58.750;17.004;2022-09-09T17:35:31;14.60;99.90
34985;DHT22;21190;58.750;17.004;2022-09-09T17:37:58;14.60;99.90
34985;DHT22;21190;58.750;17.004;2022-09-09T17:40:25;14.60;99.90
34985;DHT22;21190;58.750;17.004;2022-09-09T17:42:52;14.60;99.90